Time;durP1;ratioP1;P1;durP2;ratioP2;P2;SDS_P1;SDS_P2;PMS_P1;PMS_P2;Temp;Humidity;BMP_temperature;BMP_pressure;BME280_temperature;BME280_humidity;BME280_pressure;Samples;Min_cycle;Max_cycle;Signal;HPM_P1;HPM_P2
2022/03/28 00:57:31;;;;;;;16.77;9.27;;;;;;;;;;5023910;28;20030;-88
2022/03/28 00:59:58;;;;;;;15.23;9.25;;;8.20;99.90;;;;;;5029022;28;20072;-89
2022/03/28 01:02:24;;;;;;;17.95;9.00;;;10.00;99.90;;;;;;5022750;28;20029;-91
2022/03/28 01:04:50;;;;;;;17.63;9.63;;;;;;;;;;5048392;28;20476;-88
2022/03/28 01:07:17;;;;;;;15.77;9.18;;;9.90;99.90;;;;;;5038967;28;20093;-87
2022/03/28 01:09:44;;;;;;;15.25;9.13;;;9.80;99.90;;;;;;5050753;28;20029;-87
2022/03/28 01:12:10;;;;;;;15.80;8.57;;;;;;;;;;5033664;28;20033;-90
2022/03/28 01:14:36;;;;;;;16.08;8.73;;;;;;;;;;5029053;28;20053;-89
2022/03/28 01:19:55;;;;;;;14.85;8.90;;;9.70;99.90;;;;;;5032168;28;20045;-90
2022/03/28 01:22:21;;;;;;;17.92;9.00;;;;;;;;;;5050377;28;20010;-87
2022/03/28 01:24:48;;;;;;;14.23;8.60;;;;;;;;;;5045735;28;20025;-90
2022/03/28 01:27:14;;;;;;;15.85;7.97;;;9.60;99.90;;;;;;5044752;28;20047;-89
2022/03/28 01:29:44;;;;;;;17.65;9.20;;;9.80;99.90;;;;;;5051658;28;20044;-90
2022/03/28 01:32:11;;;;;;;16.70;8.60;;;9.60;99.90;;;;;;5027625;28;20036;-88
2022/03/28 01:34:55;;;;;;;16.13;8.13;;;12.20;99.90;;;;;;5019338;28;20013;-90
2022/03/28 01:37:21;;;;;;;15.85;8.57;;;9.50;99.90;;;;;;5032611;28;20010;-90
2022/03/28 01:39:47;;;;;;;14.52;9.25;;;10.40;99.90;;;;;;5038486;28;20089;-89
2022/03/28 01:42:13;;;;;;;13.00;8.35;;;;;;;;;;5034474;28;20014;-91
2022/03/28 01:44:39;;;;;;;14.77;8.75;;;9.40;99.90;;;;;;5045969;28;20030;-90
2022/03/28 01:47:06;;;;;;;12.30;8.07;;;9.40;99.90;;;;;;5023081;28;20026;-89
2022/03/28 01:49:32;;;;;;;13.23;8.48;;;9.50;99.90;;;;;;5054810;28;20018;-89
2022/03/28 01:51:58;;;;;;;13.38;7.88;;;;;;;;;;5039281;28;20037;-89
2022/03/28 01:54:28;;;;;;;15.80;8.93;;;9.30;99.90;;;;;;5052611;28;20037;-86
2022/03/28 01:56:54;;;;;;;13.68;7.78;;;9.20;99.90;;;;;;5029894;28;20105;-86
2022/03/28 01:59:20;;;;;;;17.05;8.73;;;;;;;;;;5033919;28;20037;-86
2022/03/28 02:01:45;;;;;;;16.17;8.95;;;9.20;99.90;;;;;;5048007;28;20026;-88
2022/03/28 02:04:11;;;;;;;14.10;9.02;;;;;;;;;;5018373;28;20056;-89
2022/03/28 02:06:37;;;;;;;17.35;9.02;;;;;;;;;;5050419;28;20045;-88
2022/03/28 02:09:06;;;;;;;16.25;8.90;;;9.20;99.90;;;;;;5051015;28;20044;-86
2022/03/28 02:11:34;;;;;;;16.92;8.48;;;;;;;;;;5045642;28;20030;-88
2022/03/28 02:14:00;;;;;;;13.75;8.13;;;;;;;;;;5033128;28;20056;-87
2022/03/28 02:16:26;;;;;;;14.95;8.85;;;;;;;;;;5035646;28;20025;-90
2022/03/28 02:18:52;;;;;;;14.23;9.30;;;;;;;;;;5032102;28;20093;-88
2022/03/28 02:21:18;;;;;;;13.90;8.48;;;;;;;;;;5023487;28;20359;-87
2022/03/28 02:23:44;;;;;;;15.13;8.85;;;;;;;;;;5036281;28;20036;-90
2022/03/28 02:26:13;;;;;;;18.67;9.27;;;9.00;99.90;;;;;;5014782;28;20468;-86
2022/03/28 02:28:40;;;;;;;15.98;9.18;;;;;;;;;;5021167;28;20522;-88
2022/03/28 02:31:06;;;;;;;15.85;9.43;;;;;;;;;;5014641;28;20021;-89
2022/03/28 02:33:33;;;;;;;15.52;9.02;;;9.00;99.90;;;;;;5037763;28;20124;-90
2022/03/28 02:35:58;;;;;;;16.25;9.70;;;11.50;99.90;;;;;;5020019;28;20029;-88
2022/03/28 02:38:25;;;;;;;14.65;8.25;;;;;;;;;;5033691;28;20037;-87
2022/03/28 02:40:51;;;;;;;15.85;8.88;;;;;;;;;;5037444;28;20018;-88
2022/03/28 02:43:19;;;;;;;12.77;7.88;;;;;;;;;;5035826;28;20038;-88
2022/03/28 02:45:45;;;;;;;16.00;9.55;;;;;;;;;;5019631;28;20089;-86
2022/03/28 02:48:11;;;;;;;14.98;8.85;;;;;;;;;;5026375;28;20063;-90
2022/03/28 02:50:37;;;;;;;13.57;8.35;;;;;;;;;;5011899;28;20025;-87
2022/03/28 02:53:03;;;;;;;14.60;8.40;;;8.70;99.90;;;;;;5028579;28;20034;-89
2022/03/28 02:55:28;;;;;;;15.23;8.38;;;10.80;99.90;;;;;;5016529;28;20037;-88
2022/03/28 02:57:54;;;;;;;15.77;8.68;;;8.70;99.90;;;;;;5033457;28;20034;-88
2022/03/28 03:00:21;;;;;;;15.63;8.30;;;8.50;99.90;;;;;;5017298;28;20049;-88
2022/03/28 03:02:46;;;;;;;13.45;8.70;;;8.70;99.90;;;;;;5037511;28;20041;-89
2022/03/28 03:05:13;;;;;;;13.68;8.70;;;8.50;99.90;;;;;;5015325;28;20147;-88
2022/03/28 03:07:39;;;;;;;16.85;9.00;;;10.50;99.90;;;;;;5028332;28;20087;-90
2022/03/28 03:10:05;;;;;;;12.65;8.18;;;8.50;99.90;;;;;;5017682;28;20029;-90
2022/03/28 03:12:31;;;;;;;15.10;8.73;;;8.50;99.90;;;;;;5030062;28;20033;-89
2022/03/28 03:14:58;;;;;;;15.57;8.55;;;8.50;99.90;;;;;;5026574;28;20029;-89
2022/03/28 03:17:24;;;;;;;13.95;8.07;;;;;;;;;;5030609;28;20529;-88
2022/03/28 03:19:50;;;;;;;14.52;8.90;;;8.50;99.90;;;;;;5028320;28;20033;-87
2022/03/28 03:22:16;;;;;;;16.77;8.13;;;10.30;99.90;;;;;;5013968;28;20124;-88
2022/03/28 03:24:45;;;;;;;16.52;8.57;;;11.70;99.90;;;;;;5014063;28;20479;-89
2022/03/28 03:27:12;;;;;;;17.02;8.60;;;8.40;99.90;;;;;;5036753;28;20053;-87
2022/03/28 03:29:38;;;;;;;14.20;8.20;;;;;;;;;;5022606;28;20038;-87
2022/03/28 03:32:05;;;;;;;17.08;8.07;;;8.30;99.90;;;;;;5035349;28;20022;-85
2022/03/28 03:34:31;;;;;;;16.13;8.68;;;;;;;;;;5026036;28;20085;-86
2022/03/28 03:36:57;;;;;;;17.98;8.82;;;;;;;;;;5037911;28;20053;-84
2022/03/28 03:39:25;;;;;;;14.27;8.15;;;;;;;;;;5036391;28;20079;-89
2022/03/28 03:41:53;;;;;;;16.15;8.73;;;8.20;99.90;;;;;;5027316;28;20056;-85
2022/03/28 03:44:20;;;;;;;14.30;9.02;;;;;;;;;;5036345;28;20034;-83
2022/03/28 03:46:46;;;;;;;14.23;8.45;;;;;;;;;;5030704;28;20104;-86
2022/03/28 03:49:13;;;;;;;17.52;8.60;;;;;;;;;;5033872;28;20030;-91
2022/03/28 03:51:39;;;;;;;13.15;8.02;;;;;;;;;;5013222;28;20037;-88
2022/03/28 03:54:05;;;;;;;15.05;9.25;;;;;;;;;;5021806;28;20025;-85
2022/03/28 03:56:31;;;;;;;16.15;9.07;;;;;;;;;;5034730;28;20033;-88
2022/03/28 03:58:57;;;;;;;15.45;9.25;;;;;;;;;;5017388;28;20041;-88
2022/03/28 04:01:23;;;;;;;15.13;9.30;;;;;;;;;;5018921;28;20490;-84
2022/03/28 04:03:50;;;;;;;16.30;9.02;;;;;;;;;;5034351;28;20129;-89
2022/03/28 04:06:16;;;;;;;16.55;8.95;;;;;;;;;;5031990;28;20052;-88
2022/03/28 04:08:42;;;;;;;15.15;9.35;;;;;;;;;;5031018;28;20034;-87
2022/03/28 04:11:08;;;;;;;19.63;9.48;;;;;;;;;;5008341;28;20070;-88
2022/03/28 04:13:35;;;;;;;14.32;9.35;;;8.00;99.90;;;;;;5031457;28;20402;-86
2022/03/28 04:16:01;;;;;;;16.40;9.18;;;;;;;;;;5031810;28;20029;-89
2022/03/28 04:18:27;;;;;;;18.77;10.18;;;;;;;;;;5031340;28;20411;-88
2022/03/28 04:20:56;;;;;;;19.42;9.93;;;7.90;99.90;;;;;;5036416;28;20030;-88
2022/03/28 04:23:24;;;;;;;16.83;9.57;;;7.90;99.90;;;;;;5011881;28;20034;-84
2022/03/28 04:25:50;;;;;;;17.50;10.18;;;;;;;;;;5027552;28;20502;-87
2022/03/28 04:28:15;;;;;;;19.25;10.20;;;7.80;99.90;;;;;;5030628;28;20030;-88
2022/03/28 04:30:41;;;;;;;17.27;9.95;;;;;;;;;;5030219;28;20038;-89
2022/03/28 04:33:09;;;;;;;18.05;9.65;;;7.80;99.90;;;;;;5041107;28;20048;-88
2022/03/28 04:35:35;;;;;;;18.48;10.15;;;;;;;;;;5008406;28;20514;-88
2022/03/28 04:38:03;;;;;;;16.98;9.68;;;;;;;;;;5016139;28;20032;-88
2022/03/28 04:40:29;;;;;;;17.10;9.85;;;;;;;;;;5030116;28;20101;-90
2022/03/28 04:42:55;;;;;;;17.48;9.52;;;7.70;99.90;;;;;;5016790;28;20034;-88
2022/03/28 04:45:21;;;;;;;19.58;11.13;;;;;;;;;;5015660;28;20459;-87
2022/03/28 04:47:47;;;;;;;19.52;10.90;;;;;;;;;;5034173;28;20033;-89
2022/03/28 04:50:13;;;;;;;19.30;11.27;;;;;;;;;;5032061;28;20037;-88
2022/03/28 04:52:38;;;;;;;17.55;9.63;;;7.60;99.90;;;;;;5035377;28;20057;-89
2022/03/28 04:55:05;;;;;;;16.52;10.32;;;7.60;99.90;;;;;;5036234;28;20059;-89
2022/03/28 04:57:31;;;;;;;22.48;10.43;;;;;;;;;;5014624;28;20048;-88
2022/03/28 04:59:57;;;;;;;17.50;10.15;;;;;;;;;;5034698;28;20119;-87
2022/03/28 05:02:26;;;;;;;18.98;10.18;;;;;;;;;;5030174;28;20037;-89
2022/03/28 05:04:52;;;;;;;19.17;10.00;;;7.50;99.90;;;;;;5035747;28;20061;-87
2022/03/28 05:07:25;;;;;;;19.30;11.15;;;10.60;99.90;;;;;;5032102;28;20029;-87
2022/03/28 05:09:53;;;;;;;22.92;10.77;;;;;;;;;;5018718;28;20049;-88
2022/03/28 05:12:19;;;;;;;21.02;11.77;;;;;;;;;;5029548;28;20037;-87
2022/03/28 05:14:44;;;;;;;22.13;11.13;;;7.40;99.90;;;;;;5027639;28;20034;-87
2022/03/28 05:17:10;;;;;;;27.38;11.20;;;;;;;;;;5028988;28;20132;-86
2022/03/28 05:19:37;;;;;;;18.13;10.95;;;;;;;;;;5033094;28;20029;-84
2022/03/28 05:22:03;;;;;;;19.83;10.93;;;;;;;;;;5034804;28;20463;-87
2022/03/28 05:24:29;;;;;;;21.92;11.55;;;;;;;;;;5026120;28;20029;-81
2022/03/28 05:26:55;;;;;;;18.33;11.15;;;7.40;99.90;;;;;;5010332;28;20025;-87
2022/03/28 05:29:24;;;;;;;21.10;11.60;;;8.90;99.90;;;;;;5018128;28;20037;-83
2022/03/28 05:31:50;;;;;;;23.63;12.15;;;7.80;99.90;;;;;;5010154;28;20053;-85
2022/03/28 05:34:16;;;;;;;21.35;11.75;;;8.30;99.90;;;;;;5033010;28;20056;-85
2022/03/28 05:36:42;;;;;;;20.75;11.65;;;7.70;99.90;;;;;;5013346;28;20029;-86
2022/03/28 05:39:08;;;;;;;23.95;12.05;;;;;;;;;;5028761;28;20028;-85
2022/03/28 05:41:35;;;;;;;23.83;11.35;;;;;;;;;;5008408;28;20025;-86
2022/03/28 05:44:01;;;;;;;23.08;12.07;;;;;;;;;;5019323;28;20497;-85
2022/03/28 05:46:28;;;;;;;23.58;11.57;;;;;;;;;;5013327;28;20033;-82
2022/03/28 05:48:53;;;;;;;23.33;12.02;;;7.40;99.90;;;;;;5024660;28;20022;-85
2022/03/28 05:51:19;;;;;;;23.63;12.02;;;7.40;99.90;;;;;;5035016;28;20033;-86
2022/03/28 05:53:45;;;;;;;24.75;11.68;;;7.20;99.90;;;;;;5034518;28;20037;-89
2022/03/28 05:56:11;;;;;;;22.50;11.93;;;7.80;99.90;;;;;;5027686;28;20030;-85
2022/03/28 05:58:36;;;;;;;24.67;12.32;;;8.20;99.90;;;;;;5008208;28;20097;-86
2022/03/28 06:01:02;;;;;;;24.40;12.60;;;7.40;99.90;;;;;;5003124;28;20029;-86
2022/03/28 06:03:28;;;;;;;23.10;12.70;;;7.40;99.90;;;;;;5014571;28;20148;-88
2022/03/28 06:05:54;;;;;;;24.63;12.35;;;7.40;99.90;;;;;;5014686;28;20021;-88
2022/03/28 06:08:19;;;;;;;24.45;13.10;;;7.30;99.90;;;;;;5003966;28;20037;-86
2022/03/28 06:10:45;;;;;;;22.10;12.40;;;;;;;;;;5025746;28;20071;-88
2022/03/28 06:13:13;;;;;;;24.95;12.27;;;7.40;99.90;;;;;;5010452;28;20030;-87
2022/03/28 06:15:39;;;;;;;23.85;13.25;;;;;;;;;;5016499;28;20160;-84
2022/03/28 06:18:05;;;;;;;20.60;12.70;;;7.40;99.90;;;;;;5023879;28;20034;-86
2022/03/28 06:20:32;;;;;;;23.67;12.55;;;7.40;99.90;;;;;;5012458;28;20135;-86
2022/03/28 06:22:58;;;;;;;21.55;12.43;;;;;;;;;;5008701;28;20033;-88
2022/03/28 06:25:24;;;;;;;27.52;14.68;;;;;;;;;;5025015;28;20140;-89
2022/03/28 06:27:50;;;;;;;28.90;13.00;;;7.70;99.90;;;;;;5021698;28;20103;-86
2022/03/28 06:30:16;;;;;;;28.58;13.35;;;7.70;99.90;;;;;;5026913;28;20034;-86
2022/03/28 06:32:42;;;;;;;24.45;13.13;;;7.70;99.90;;;;;;5017909;28;20539;-90
2022/03/28 06:35:08;;;;;;;25.88;12.15;;;7.80;99.90;;;;;;5027641;28;23490;-87
2022/03/28 06:37:35;;;;;;;30.40;12.93;;;5.70;99.90;;;;;;5020844;28;20084;-85
2022/03/28 06:40:05;;;;;;;22.98;13.07;;;7.90;99.90;;;;;;5019379;28;20034;-87
2022/03/28 06:45:10;;;;;;;27.67;12.68;;;8.00;99.90;;;;;;5172486;22;20057;-81
2022/03/28 06:47:38;;;;;;;30.85;13.30;;;8.00;99.90;;;;;;5002541;28;20132;-81
2022/03/28 06:50:07;;;;;;;25.40;12.80;;;8.00;99.90;;;;;;5010353;28;20366;-79
2022/03/28 06:52:33;;;;;;;26.48;12.77;;;8.00;99.90;;;;;;5017521;28;20056;-81
2022/03/28 06:55:00;;;;;;;25.40;13.40;;;8.00;99.90;;;;;;5029070;28;20153;-80
2022/03/28 06:57:27;;;;;;;24.48;12.93;;;8.20;99.90;;;;;;5020443;28;20029;-80
2022/03/28 06:59:55;;;;;;;26.67;12.95;;;8.30;99.90;;;;;;5017501;28;20398;-81
2022/03/28 07:02:22;;;;;;;27.70;12.65;;;8.40;99.90;;;;;;5020009;28;20039;-81
2022/03/28 07:04:50;;;;;;;24.40;13.32;;;8.60;99.90;;;;;;5024675;28;20629;-79
2022/03/28 07:07:16;;;;;;;25.05;12.68;;;8.70;99.90;;;;;;5019711;28;20113;-78
2022/03/28 07:09:42;;;;;;;21.75;12.38;;;8.90;99.90;;;;;;5025360;28;20405;-78
2022/03/28 07:12:10;;;;;;;24.02;13.02;;;9.90;99.90;;;;;;5018309;28;20025;-81
2022/03/28 07:14:36;;;;;;;30.70;13.60;;;;;;;;;;5015826;28;20041;-80
2022/03/28 07:17:02;;;;;;;25.55;12.43;;;9.30;99.90;;;;;;5012171;28;20030;-79
2022/03/28 07:19:29;;;;;;;25.38;13.18;;;9.40;99.90;;;;;;5024926;28;20037;-81
2022/03/28 07:21:55;;;;;;;21.58;12.60;;;9.50;99.90;;;;;;5014595;28;20044;-81
2022/03/28 07:24:22;;;;;;;23.35;13.52;;;9.60;99.90;;;;;;5028752;28;20033;-80
2022/03/28 07:26:49;;;;;;;21.10;13.07;;;9.90;99.90;;;;;;5016021;28;20025;-81
2022/03/28 07:29:17;;;;;;;21.77;12.82;;;9.90;99.90;;;;;;5019373;28;20405;-80
2022/03/28 07:31:48;;;;;;;26.25;14.05;;;10.00;99.90;;;;;;5048793;28;20026;-81
2022/03/28 07:34:30;;;;;;;24.90;13.48;;;10.00;99.90;;;;;;5020631;28;20041;-79
2022/03/28 07:37:05;;;;;;;25.17;13.45;;;10.10;99.90;;;;;;5044331;28;20029;-79
2022/03/28 07:39:34;;;;;;;31.65;15.63;;;10.20;99.90;;;;;;5027995;28;20025;-81
2022/03/28 07:42:01;;;;;;;27.48;14.77;;;10.30;99.90;;;;;;5038964;28;20063;-77
2022/03/28 07:44:28;;;;;;;25.80;14.40;;;10.40;99.90;;;;;;5034368;28;20068;-79
2022/03/28 07:46:54;;;;;;;31.35;14.65;;;10.60;99.90;;;;;;5033806;28;20014;-76
2022/03/28 07:49:23;;;;;;;27.02;13.93;;;10.70;99.90;;;;;;5037926;28;20056;-76
2022/03/28 07:51:51;;;;;;;24.58;14.75;;;10.90;99.90;;;;;;5036692;28;20036;-77
2022/03/28 07:54:18;;;;;;;23.98;14.55;;;11.00;99.90;;;;;;5042566;28;20021;-77
2022/03/28 07:56:44;;;;;;;25.05;14.45;;;11.50;99.90;;;;;;5032913;28;20021;-78
2022/03/28 07:59:12;;;;;;;28.95;14.90;;;11.30;99.90;;;;;;5036821;28;20256;-77
2022/03/28 08:01:38;;;;;;;22.83;13.90;;;11.50;99.90;;;;;;5032410;28;20072;-78
2022/03/28 08:04:06;;;;;;;24.17;13.63;;;11.50;99.90;;;;;;5033629;28;20033;-77
2022/03/28 08:06:33;;;;;;;26.45;13.85;;;11.70;99.90;;;;;;5023526;28;20057;-80
2022/03/28 08:08:59;;;;;;;24.27;14.05;;;11.80;99.90;;;;;;5041542;28;20088;-78
2022/03/28 08:11:25;;;;;;;22.67;13.85;;;11.70;99.90;;;;;;5039020;28;20026;-78
2022/03/28 08:13:53;;;;;;;24.73;14.43;;;11.90;99.90;;;;;;5025949;28;20040;-80
2022/03/28 08:16:19;;;;;;;25.67;15.02;;;12.00;99.90;;;;;;5022168;28;20034;-77
2022/03/28 08:18:46;;;;;;;24.05;14.15;;;12.00;99.90;;;;;;5026614;28;20026;-77
2022/03/28 08:21:14;;;;;;;24.92;15.25;;;12.20;99.90;;;;;;5008320;28;20159;-79
2022/03/28 08:23:41;;;;;;;24.08;13.48;;;14.50;99.90;;;;;;5031581;28;20440;-79
2022/03/28 08:26:15;;;;;;;26.00;15.00;;;12.60;99.90;;;;;;5030517;28;20025;-82
2022/03/28 08:28:43;;;;;;;25.80;13.57;;;12.80;99.90;;;;;;5021379;28;20088;-80
2022/03/28 08:31:10;;;;;;;27.92;13.98;;;12.80;99.90;;;;;;5041586;28;20101;-80
2022/03/28 08:33:36;;;;;;;24.67;13.98;;;13.00;99.90;;;;;;5027709;28;20037;-80
2022/03/28 08:36:03;;;;;;;21.08;13.57;;;13.20;99.90;;;;;;5025508;28;20420;-80
2022/03/28 08:38:34;;;;;;;24.85;13.60;;;13.20;99.90;;;;;;5031222;28;20034;-78
2022/03/28 08:41:00;;;;;;;20.05;12.57;;;13.40;99.90;;;;;;5025790;28;20037;-78
2022/03/28 08:43:30;;;;;;;23.20;13.13;;;13.80;99.90;;;;;;5012237;28;20034;-79
2022/03/28 08:45:58;;;;;;;24.30;14.45;;;13.70;99.90;;;;;;5003210;28;20033;-79
2022/03/28 08:48:27;;;;;;;23.15;13.60;;;13.80;99.90;;;;;;5046316;28;20553;-78
2022/03/28 08:50:55;;;;;;;22.20;13.45;;;14.10;99.90;;;;;;5016650;28;20084;-80
2022/03/28 08:53:21;;;;;;;21.95;14.05;;;14.20;99.90;;;;;;5017225;28;20022;-80
2022/03/28 08:55:53;;;;;;;25.35;14.63;;;14.50;99.90;;;;;;5034648;28;20033;-80
2022/03/28 08:58:22;;;;;;;25.13;13.13;;;14.60;99.90;;;;;;5021724;28;20489;-77
2022/03/28 09:00:50;;;;;;;26.95;13.50;;;14.70;99.90;;;;;;5023007;28;20032;-77
2022/03/28 09:03:18;;;;;;;21.17;13.05;;;14.80;99.90;;;;;;5021902;28;20065;-80
2022/03/28 09:05:49;;;;;;;17.92;11.30;;;14.90;99.90;;;;;;5024354;28;20047;-80
2022/03/28 09:08:17;;;;;;;18.30;12.93;;;15.10;99.30;;;;;;5035750;28;20026;-79
2022/03/28 09:10:48;;;;;;;19.90;11.73;;;15.20;98.80;;;;;;5002876;28;20073;-80
2022/03/28 09:13:18;;;;;;;19.10;11.57;;;15.40;98.40;;;;;;5043098;28;20694;-78
2022/03/28 09:15:53;;;;;;;18.63;11.20;;;15.60;97.90;;;;;;5019838;28;20489;-80
2022/03/28 09:18:37;;;;;;;18.70;10.65;;;15.80;96.20;;;;;;5023677;28;20029;-80
2022/03/28 09:21:12;;;;;;;24.50;10.82;;;15.90;93.30;;;;;;5024217;28;20025;-77
2022/03/28 09:23:48;;;;;;;21.85;11.05;;;15.90;92.50;;;;;;5019602;28;20020;-81
2022/03/28 09:26:20;;;;;;;22.90;10.50;;;16.00;91.10;;;;;;5032640;28;20034;-79
2022/03/28 09:28:50;;;;;;;21.65;11.20;;;16.20;90.50;;;;;;5024868;28;20102;-78
2022/03/28 09:31:48;;;;;;;17.77;11.23;;;16.30;89.10;;;;;;5050983;28;20057;-78
2022/03/28 09:34:20;;;;;;;22.20;11.25;;;16.80;85.60;;;;;;5048246;28;20021;-77
2022/03/28 09:36:58;;;;;;;26.55;15.18;;;16.80;85.80;;;;;;5026128;28;20010;-77
2022/03/28 09:39:32;;;;;;;25.65;11.30;;;17.30;85.80;;;;;;5046538;28;20420;-80
2022/03/28 09:42:04;;;;;;;17.20;10.50;;;17.00;84.80;;;;;;5013352;28;20021;-78
2022/03/28 09:44:37;;;;;;;18.55;11.23;;;17.00;82.70;;;;;;5054351;28;20013;-77
2022/03/28 09:47:12;;;;;;;17.58;10.20;;;17.10;82.70;;;;;;5029845;28;20515;-76
2022/03/28 09:49:42;;;;;;;20.75;11.05;;;17.30;83.50;;;;;;5024959;28;20030;-80
2022/03/28 09:52:20;;;;;;;21.88;11.15;;;17.40;80.60;;;;;;5014071;28;20030;-81
2022/03/28 09:54:47;;;;;;;21.00;11.02;;;17.50;80.80;;;;;;5005348;28;20381;-81
2022/03/28 09:57:23;;;;;;;17.35;10.32;;;17.60;79.50;;;;;;5026820;28;20034;-80
2022/03/28 09:59:52;;;;;;;21.60;11.00;;;17.60;78.50;;;;;;5019992;28;20045;-80
2022/03/28 10:02:25;;;;;;;16.95;9.85;;;17.60;77.30;;;;;;5029509;28;20036;-78
2022/03/28 10:04:58;;;;;;;17.05;10.23;;;17.60;77.40;;;;;;5027777;28;20075;-81
2022/03/28 10:07:28;;;;;;;21.80;10.88;;;17.80;76.20;;;;;;5024341;28;20041;-80
2022/03/28 10:09:59;;;;;;;19.90;9.98;;;17.90;74.80;;;;;;5028048;28;20113;-78
2022/03/28 10:12:31;;;;;;;18.73;9.98;;;18.10;74.20;;;;;;5040615;28;20025;-79
2022/03/28 10:15:01;;;;;;;16.42;9.75;;;18.30;73.10;;;;;;5018482;28;20544;-81
2022/03/28 10:17:34;;;;;;;18.95;10.18;;;18.30;71.30;;;;;;5037918;28;20402;-78
2022/03/28 10:20:05;;;;;;;18.58;9.95;;;18.40;71.00;;;;;;5006122;28;21007;-80
2022/03/28 10:22:38;;;;;;;19.65;9.73;;;18.60;70.70;;;;;;5041669;28;20026;-77
2022/03/28 10:25:21;;;;;;;20.38;10.10;;;18.70;70.60;;;;;;5029247;28;20095;-81
2022/03/28 10:27:54;;;;;;;19.27;9.85;;;18.70;70.70;;;;;;5001252;28;20025;-77
2022/03/28 10:30:30;;;;;;;16.58;9.60;;;19.00;67.80;;;;;;5035046;28;20050;-79
2022/03/28 10:33:21;;;;;;;17.70;8.98;;;18.90;67.90;;;;;;5033880;28;20025;-81
2022/03/28 10:36:30;;;;;;;17.45;8.98;;;18.80;67.90;;;;;;5029005;28;20010;-76
2022/03/28 10:39:31;;;;;;;15.63;9.43;;;19.00;68.20;;;;;;5024414;28;20477;-81
2022/03/28 10:42:37;;;;;;;20.30;9.27;;;18.90;66.60;;;;;;5043608;28;20026;-79
2022/03/28 10:45:09;;;;;;;20.27;9.95;;;19.30;65.90;;;;;;4993813;28;20034;-81
2022/03/28 10:47:59;;;;;;;18.00;8.98;;;19.30;66.40;;;;;;5025636;28;20021;-79
2022/03/28 10:50:29;;;;;;;20.00;10.57;;;19.50;65.60;;;;;;5036862;28;20045;-80
2022/03/28 10:53:16;;;;;;;23.67;10.10;;;19.70;65.30;;;;;;5047290;28;20044;-78
2022/03/28 10:55:59;;;;;;;18.80;10.13;;;19.80;64.40;;;;;;5012509;28;20029;-81
2022/03/28 10:58:28;;;;;;;18.88;9.45;;;19.60;62.80;;;;;;5025774;28;20123;-79
2022/03/28 11:01:16;;;;;;;17.27;9.90;;;19.60;63.30;;;;;;5023536;28;20036;-79
2022/03/28 11:04:02;;;;;;;18.00;10.13;;;19.60;62.30;;;;;;5017548;28;20045;-80
2022/03/28 11:06:49;;;;;;;18.60;9.65;;;19.60;62.90;;;;;;5034628;28;20044;-78
2022/03/28 11:09:43;;;;;;;17.05;9.57;;;19.80;61.60;;;;;;5034168;28;20013;-76
2022/03/28 11:12:39;;;;;;;17.27;10.05;;;19.70;61.90;;;;;;5046449;28;20021;-77
2022/03/28 11:15:15;;;;;;;20.15;9.93;;;19.70;62.20;;;;;;5033016;28;20027;-78
2022/03/28 11:17:59;;;;;;;20.42;9.32;;;19.90;62.00;;;;;;5036401;28;20030;-77
2022/03/28 11:20:45;;;;;;;16.83;8.85;;;20.20;60.10;;;;;;5029338;28;20041;-76
2022/03/28 11:23:18;;;;;;;17.45;9.60;;;20.20;59.20;;;;;;5021432;28;20049;-79
2022/03/28 11:25:51;;;;;;;17.30;9.70;;;20.20;59.60;;;;;;5045782;28;20012;-77
2022/03/28 11:28:24;;;;;;;17.42;9.27;;;20.30;59.30;;;;;;5029713;28;20117;-78
2022/03/28 11:31:09;;;;;;;19.40;9.55;;;20.40;59.10;;;;;;5028711;28;20030;-76
2022/03/28 11:33:38;;;;;;;20.15;10.40;;;20.40;58.20;;;;;;5037182;28;20025;-77
2022/03/28 11:36:07;;;;;;;24.38;11.38;;;20.60;58.40;;;;;;5030913;28;20052;-78
2022/03/28 11:39:04;;;;;;;20.77;10.15;;;20.70;57.20;;;;;;5029574;28;20068;-78
2022/03/28 11:41:34;;;;;;;16.25;9.88;;;20.80;55.70;;;;;;5033327;28;20026;-77
2022/03/28 11:44:04;;;;;;;18.27;10.38;;;20.60;56.70;;;;;;5054999;28;20057;-76
2022/03/28 11:46:32;;;;;;;16.02;8.95;;;20.80;56.20;;;;;;5034039;28;20010;-77
2022/03/28 11:49:06;;;;;;;19.15;9.88;;;21.00;53.80;;;;;;5028741;28;20025;-77
2022/03/28 11:51:36;;;;;;;19.52;10.30;;;21.00;51.00;;;;;;5063634;28;20026;-77
2022/03/28 11:54:15;;;;;;;18.35;10.35;;;21.00;51.50;;;;;;5030790;28;20030;-77
2022/03/28 11:59:31;;;;;;;17.73;9.15;;;21.20;53.30;;;;;;5029457;28;20082;-76
2022/03/28 12:02:06;;;;;;;14.60;8.48;;;21.20;45.80;;;;;;5039530;28;20029;-76
2022/03/28 12:04:33;;;;;;;14.27;8.65;;;21.30;46.30;;;;;;5024478;28;20033;-75
2022/03/28 12:07:02;;;;;;;14.55;8.80;;;21.50;47.40;;;;;;5030929;28;20026;-79
2022/03/28 12:09:29;;;;;;;18.77;9.15;;;21.50;46.60;;;;;;5021947;28;20033;-77
2022/03/28 12:12:00;;;;;;;14.70;9.00;;;21.40;46.80;;;;;;5017154;28;20033;-79
2022/03/28 12:14:29;;;;;;;15.23;8.18;;;21.30;47.30;;;;;;5022282;28;20044;-79
2022/03/28 12:16:57;;;;;;;12.60;8.55;;;21.40;48.10;;;;;;5023078;28;20025;-79
2022/03/28 12:19:27;;;;;;;17.45;8.70;;;21.40;47.90;;;;;;5038327;28;20065;-79
2022/03/28 12:22:12;;;;;;;14.95;8.77;;;21.50;46.10;;;;;;5023434;28;20029;-78
2022/03/28 12:24:52;;;;;;;13.75;8.70;;;21.50;42.10;;;;;;5019153;28;20044;-80
2022/03/28 12:27:25;;;;;;;14.02;8.93;;;21.60;44.90;;;;;;5019357;28;20025;-80
2022/03/28 12:29:53;;;;;;;13.80;9.00;;;21.60;42.60;;;;;;5023598;28;20026;-80
2022/03/28 12:32:21;;;;;;;16.10;8.77;;;21.70;40.10;;;;;;5020804;28;20022;-80
2022/03/28 12:34:50;;;;;;;15.32;8.80;;;21.80;42.20;;;;;;5027411;28;20026;-77
2022/03/28 12:37:18;;;;;;;17.35;8.88;;;22.00;41.20;;;;;;5019399;28;20037;-80
2022/03/28 12:39:48;;;;;;;14.50;9.13;;;21.90;39.80;;;;;;5011722;28;20047;-79
2022/03/28 12:42:28;;;;;;;13.65;8.02;;;21.80;40.90;;;;;;5010330;28;20048;-79
2022/03/28 12:45:01;;;;;;;12.70;7.78;;;21.80;43.20;;;;;;5051159;22;20060;-88
2022/03/28 12:47:27;;;;;;;14.27;8.20;;;21.80;41.60;;;;;;5029847;28;20030;-88
2022/03/28 12:49:54;;;;;;;14.48;8.77;;;22.00;41.40;;;;;;5030733;28;20014;-88
2022/03/28 12:52:24;;;;;;;14.52;9.38;;;;;;;;;;5048766;28;20050;-88
2022/03/28 12:54:56;;;;;;;15.02;8.95;;;21.80;40.40;;;;;;5062115;28;20009;-88
2022/03/28 12:57:25;;;;;;;15.10;8.60;;;21.60;41.50;;;;;;5056905;28;20025;-87
2022/03/28 12:59:52;;;;;;;18.55;9.20;;;21.60;42.10;;;;;;5063643;28;20013;-89
2022/03/28 13:02:20;;;;;;;15.02;8.20;;;;;;;;;;5055352;28;20036;-90
2022/03/28 13:04:48;;;;;;;17.65;8.57;;;21.90;43.60;;;;;;5086030;22;20334;-84
2022/03/28 13:07:22;;;;;;;14.07;8.55;;;21.90;43.90;;;;;;5061051;28;20029;-87
2022/03/28 13:10:06;;;;;;;14.25;8.90;;;22.10;43.40;;;;;;5081458;28;20012;-85
2022/03/28 13:12:44;;;;;;;15.38;9.27;;;22.10;43.10;;;;;;5067371;28;20029;-87
2022/03/28 13:15:19;;;;;;;14.60;8.50;;;21.80;41.50;;;;;;5063709;28;20099;-87
2022/03/28 13:17:46;;;;;;;15.52;8.77;;;21.80;42.00;;;;;;5050713;28;20024;-85
2022/03/28 13:20:21;;;;;;;14.65;8.48;;;21.60;42.60;;;;;;5073371;28;20106;-89
2022/03/28 13:22:47;;;;;;;14.80;8.57;;;21.50;43.70;;;;;;5063317;28;20024;-88
2022/03/28 13:25:20;;;;;;;17.80;8.65;;;21.50;44.80;;;;;;5064339;28;20024;-89
2022/03/28 13:28:04;;;;;;;14.93;8.77;;;21.60;42.20;;;;;;5064200;28;20088;-87
2022/03/28 13:30:35;;;;;;;13.52;8.65;;;21.60;42.90;;;;;;5063022;28;20020;-88
2022/03/28 13:33:02;;;;;;;15.10;8.38;;;21.90;42.30;;;;;;5062961;28;20535;-88
2022/03/28 13:35:28;;;;;;;15.63;8.80;;;;;;;;;;5063730;28;20052;-87
2022/03/28 13:38:02;;;;;;;14.43;8.90;;;22.00;41.00;;;;;;5061903;28;20028;-89
2022/03/28 13:40:29;;;;;;;16.95;9.20;;;21.70;41.20;;;;;;5061539;28;20028;-88
2022/03/28 13:42:57;;;;;;;12.82;8.52;;;21.80;41.90;;;;;;5067472;28;20115;-87
2022/03/28 13:45:23;;;;;;;15.32;8.77;;;;;;;;;;5050455;28;20025;-88
2022/03/28 13:47:50;;;;;;;14.73;8.30;;;;;;;;;;5045407;28;20031;-87
2022/03/28 13:50:16;;;;;;;18.98;8.95;;;;;;;;;;5041853;28;20579;-86
2022/03/28 13:52:43;;;;;;;14.30;8.20;;;21.70;40.20;;;;;;5041461;28;20064;-90
2022/03/28 13:55:12;;;;;;;15.90;8.73;;;21.70;41.00;;;;;;5059147;28;20473;-87
2022/03/28 13:57:38;;;;;;;14.65;9.38;;;21.60;41.60;;;;;;5042143;28;20047;-87
2022/03/28 14:00:05;;;;;;;15.75;9.90;;;21.70;41.80;;;;;;5056892;28;20477;-88
2022/03/28 14:02:31;;;;;;;17.15;9.10;;;21.80;41.20;;;;;;5061521;28;20016;-85
2022/03/28 14:05:00;;;;;;;14.25;8.93;;;22.00;41.00;;;;;;5063156;28;20069;-88
2022/03/28 14:07:25;;;;;;;15.77;9.63;;;22.10;41.00;;;;;;5061612;28;20135;-87
2022/03/28 14:09:51;;;;;;;13.90;8.57;;;22.20;41.00;;;;;;5060247;28;20044;-87
2022/03/28 14:12:17;;;;;;;17.65;8.45;;;22.30;40.70;;;;;;5056303;28;20028;-87
2022/03/28 14:14:42;;;;;;;15.90;9.23;;;22.30;40.90;;;;;;5072874;28;20540;-88